Time;durP1;ratioP1;P1;durP2;ratioP2;P2;SDS_P1;SDS_P2;PMS_P1;PMS_P2;Temp;Humidity;BMP_temperature;BMP_pressure;BME280_temperature;BME280_humidity;BME280_pressure;Samples;Min_cycle;Max_cycle;Signal;HPM_P1;HPM_P2
2023/06/14 03:26:24;;;;;;;0.60;0.20;;;;;;;;;;5542174;23;20510;-74
2023/06/14 03:28:52;;;;;;;0.60;0.17;;;18.00;1.00;;;;;;4936683;29;20504;-76
2023/06/14 03:31:21;;;;;;;0.60;0.10;;;17.80;1.00;;;;;;4927478;29;20998;-74
2023/06/14 03:33:49;;;;;;;0.60;0.10;;;17.90;1.00;;;;;;4925289;29;20462;-74
2023/06/14 03:36:17;;;;;;;0.60;0.20;;;17.80;1.00;;;;;;4948657;28;20495;-73
2023/06/14 03:38:45;;;;;;;0.80;0.67;;;17.60;1.00;;;;;;4935623;29;20459;-74
2023/06/14 03:41:13;;;;;;;0.60;0.20;;;17.50;1.00;;;;;;4998477;23;20507;-69
2023/06/14 03:43:42;;;;;;;0.60;0.10;;;17.50;1.00;;;;;;4992694;28;20488;-70
2023/06/14 03:46:10;;;;;;;0.60;0.20;;;17.50;1.00;;;;;;4993371;28;20546;-69
2023/06/14 03:48:39;;;;;;;0.60;0.27;;;17.40;1.00;;;;;;4993001;28;20453;-69
2023/06/14 03:51:06;;;;;;;0.60;0.30;;;17.40;1.00;;;;;;4979306;28;20492;-69
2023/06/14 03:53:35;;;;;;;5.53;5.10;;;17.40;1.00;;;;;;4973424;28;20542;-70
2023/06/14 03:56:11;;;;;;;1.57;1.43;;;17.40;1.00;;;;;;4973597;28;20933;-69
2023/06/14 03:58:39;;;;;;;0.60;0.10;;;17.40;1.00;;;;;;4972824;28;20446;-70
2023/06/14 04:01:08;;;;;;;0.60;0.20;;;17.30;1.00;;;;;;4972524;28;20481;-69
2023/06/14 04:03:36;;;;;;;0.60;0.10;;;17.40;1.00;;;;;;4972522;28;20544;-71
2023/06/14 04:06:06;;;;;;;0.90;0.63;;;17.40;1.00;;;;;;4973209;28;20546;-70
2023/06/14 04:08:34;;;;;;;1.23;1.13;;;17.40;1.00;;;;;;4973312;28;20457;-70
2023/06/14 04:11:02;;;;;;;0.60;0.10;;;;;;;;;;4982002;28;20499;-70
2023/06/14 04:13:30;;;;;;;0.60;0.10;;;17.50;1.00;;;;;;4992504;28;20484;-70
2023/06/14 04:15:58;;;;;;;0.60;0.20;;;17.50;1.00;;;;;;4992750;28;20509;-70
2023/06/14 04:18:27;;;;;;;0.60;0.10;;;17.40;1.00;;;;;;4992342;28;20460;-70
2023/06/14 04:20:56;;;;;;;0.67;0.33;;;17.50;1.00;;;;;;4981266;28;20479;-71
2023/06/14 04:23:24;;;;;;;0.60;0.20;;;17.50;1.00;;;;;;4972341;28;20490;-71
2023/06/14 04:25:52;;;;;;;0.60;0.20;;;17.60;1.00;;;;;;4972646;28;20484;-71
2023/06/14 04:28:20;;;;;;;0.60;0.10;;;17.60;1.00;;;;;;4972709;28;20454;-71
2023/06/14 04:30:48;;;;;;;0.70;0.50;;;17.60;1.00;;;;;;4972255;28;20483;-71
2023/06/14 04:33:17;;;;;;;0.60;0.20;;;17.50;1.00;;;;;;4971343;28;20486;-71
2023/06/14 04:35:48;;;;;;;0.60;0.20;;;;;;;;;;4972829;28;20443;-71
2023/06/14 04:38:17;;;;;;;0.60;0.20;;;17.50;1.00;;;;;;4973224;28;20457;-71
2023/06/14 04:40:45;;;;;;;0.60;0.20;;;17.60;1.00;;;;;;4972877;28;21078;-70
2023/06/14 04:43:17;;;;;;;0.60;0.13;;;17.50;1.00;;;;;;4972370;28;20970;-71
2023/06/14 04:45:46;;;;;;;0.87;0.50;;;17.50;1.00;;;;;;4969217;28;20844;-71
2023/06/14 04:48:14;;;;;;;0.60;0.17;;;17.60;1.00;;;;;;4962278;28;20447;-70
2023/06/14 04:50:43;;;;;;;0.83;0.37;;;17.60;1.00;;;;;;4960959;28;20458;-71
2023/06/14 04:53:12;;;;;;;1.13;0.37;;;17.60;1.00;;;;;;4961311;28;20458;-71
2023/06/14 04:55:44;;;;;;;0.77;0.30;;;17.60;1.00;;;;;;4962144;28;20438;-71
2023/06/14 04:58:13;;;;;;;1.37;0.90;;;17.50;1.00;;;;;;4962966;28;20454;-71
2023/06/14 05:00:42;;;;;;;0.60;0.10;;;17.50;1.00;;;;;;4962138;28;20528;-71
2023/06/14 05:03:12;;;;;;;1.03;0.93;;;17.50;1.00;;;;;;4963119;28;20442;-71
2023/06/14 05:05:41;;;;;;;0.60;0.20;;;17.50;1.00;;;;;;4962811;28;20485;-70
2023/06/14 05:08:09;;;;;;;0.60;0.10;;;17.50;1.00;;;;;;4961383;28;20541;-71
2023/06/14 05:10:39;;;;;;;0.60;0.10;;;17.50;1.00;;;;;;4968353;28;20571;-70
2023/06/14 05:13:06;;;;;;;0.60;0.20;;;17.60;1.00;;;;;;4960879;28;20520;-71
2023/06/14 05:15:34;;;;;;;1.37;1.27;;;17.60;1.00;;;;;;4962861;28;20806;-71
2023/06/14 05:18:02;;;;;;;0.80;0.40;;;17.60;1.00;;;;;;4967325;28;20837;-71
2023/06/14 05:20:30;;;;;;;4.17;1.70;;;17.70;1.00;;;;;;4969648;28;20473;-70
2023/06/14 05:22:58;;;;;;;0.70;0.30;;;17.70;1.00;;;;;;4960686;28;20461;-70
2023/06/14 05:25:28;;;;;;;0.60;0.10;;;17.70;1.00;;;;;;4962934;28;21039;-71
2023/06/14 05:27:57;;;;;;;0.70;0.40;;;17.60;1.00;;;;;;4958738;28;20486;-70
2023/06/14 05:30:25;;;;;;;0.60;0.10;;;17.60;1.00;;;;;;4953682;28;20495;-71
2023/06/14 05:32:54;;;;;;;0.60;0.23;;;17.70;1.00;;;;;;4956902;28;20546;-70
2023/06/14 05:35:23;;;;;;;0.60;0.10;;;17.80;1.00;;;;;;4971988;28;20447;-70
2023/06/14 05:37:51;;;;;;;0.70;0.43;;;17.80;1.00;;;;;;4972318;28;20452;-70
2023/06/14 05:40:19;;;;;;;0.60;0.10;;;17.90;1.00;;;;;;4971966;28;20507;-70
2023/06/14 05:42:47;;;;;;;0.70;0.20;;;17.90;1.00;;;;;;4971802;28;20449;-69
2023/06/14 05:45:16;;;;;;;0.70;0.30;;;17.90;1.00;;;;;;4974231;28;20473;-69
2023/06/14 05:47:44;;;;;;;0.70;0.37;;;18.00;1.00;;;;;;4976595;28;20996;-69
2023/06/14 05:50:13;;;;;;;0.60;0.33;;;18.10;1.00;;;;;;4976153;28;20534;-70
2023/06/14 05:52:40;;;;;;;0.60;0.10;;;18.10;1.00;;;;;;4975933;28;20453;-70
2023/06/14 05:55:11;;;;;;;1.20;0.40;;;18.20;1.00;;;;;;4976571;28;20480;-70
2023/06/14 05:57:41;;;;;;;0.60;0.10;;;18.30;1.00;;;;;;4975299;28;20457;-71
2023/06/14 06:00:14;;;;;;;0.60;0.20;;;18.30;1.00;;;;;;4975206;28;20496;-70
2023/06/14 06:02:44;;;;;;;0.70;0.40;;;18.40;1.00;;;;;;4975207;28;20455;-70
2023/06/14 06:05:13;;;;;;;1.43;1.33;;;18.40;1.00;;;;;;4975649;28;20480;-70
2023/06/14 06:07:44;;;;;;;0.60;0.20;;;;;;;;;;4975588;28;20476;-70
2023/06/14 06:10:12;;;;;;;0.83;0.50;;;18.50;1.00;;;;;;4977217;28;20477;-70
2023/06/14 06:12:41;;;;;;;0.97;0.57;;;18.40;1.00;;;;;;4994721;28;20449;-70
2023/06/14 06:15:11;;;;;;;0.60;0.20;;;18.40;1.00;;;;;;4980745;28;20536;-70
2023/06/14 06:17:40;;;;;;;1.43;1.30;;;18.30;1.00;;;;;;4975340;28;20457;-70
2023/06/14 06:20:27;;;;;;;1.57;0.30;;;18.40;1.00;;;;;;4956480;28;20462;-71
2023/06/14 06:22:57;;;;;;;0.60;0.10;;;18.50;1.00;;;;;;4957080;29;20528;-70
2023/06/14 06:25:25;;;;;;;0.60;0.20;;;18.20;1.00;;;;;;4957195;29;20586;-70
2023/06/14 06:27:54;;;;;;;0.73;0.30;;;18.60;1.00;;;;;;4957706;28;20481;-70
2023/06/14 06:30:22;;;;;;;0.70;0.40;;;18.70;1.00;;;;;;4975197;28;20515;-69
2023/06/14 06:32:50;;;;;;;0.80;0.50;;;18.70;1.00;;;;;;4975256;28;20454;-68
2023/06/14 06:35:18;;;;;;;0.70;0.37;;;18.70;1.00;;;;;;4975362;28;20445;-70
2023/06/14 06:37:48;;;;;;;0.60;0.20;;;18.80;1.00;;;;;;4975065;28;20935;-70
2023/06/14 06:40:16;;;;;;;1.53;1.03;;;18.80;1.00;;;;;;4974433;28;20546;-70
2023/06/14 06:42:44;;;;;;;1.13;0.40;;;18.80;1.00;;;;;;4975167;28;20449;-70
2023/06/14 06:45:11;;;;;;;0.60;0.20;;;18.80;1.00;;;;;;4974733;28;20488;-71
2023/06/14 06:47:40;;;;;;;0.60;0.23;;;18.80;1.00;;;;;;4974993;28;20453;-70
2023/06/14 06:50:09;;;;;;;0.67;0.30;;;18.80;1.00;;;;;;4974849;28;20473;-70
2023/06/14 06:52:37;;;;;;;1.90;1.53;;;18.80;1.00;;;;;;4973878;28;20451;-70
2023/06/14 06:55:07;;;;;;;0.60;0.17;;;18.90;1.00;;;;;;4973495;28;20549;-70
2023/06/14 06:57:34;;;;;;;0.60;0.20;;;19.10;1.00;;;;;;4973301;28;20972;-70
2023/06/14 07:00:05;;;;;;;0.60;0.17;;;19.20;1.00;;;;;;4974949;28;20840;-70
2023/06/14 07:02:33;;;;;;;0.60;0.10;;;19.20;1.00;;;;;;4974435;28;20991;-69
2023/06/14 07:05:01;;;;;;;2.20;0.77;;;19.30;1.00;;;;;;4974345;28;20488;-70
2023/06/14 07:07:28;;;;;;;0.60;0.20;;;19.40;1.00;;;;;;4975223;28;20477;-70
2023/06/14 07:09:57;;;;;;;0.60;0.20;;;19.40;1.00;;;;;;4975146;28;20496;-71
2023/06/14 07:12:26;;;;;;;0.60;0.20;;;19.40;1.00;;;;;;4993978;28;20847;-70
2023/06/14 07:14:54;;;;;;;0.60;0.20;;;19.40;1.00;;;;;;4994394;28;20448;-71
2023/06/14 07:17:22;;;;;;;0.70;0.23;;;19.50;1.00;;;;;;4982640;28;20455;-71
2023/06/14 07:19:50;;;;;;;0.90;0.37;;;19.50;1.00;;;;;;4974595;28;20480;-71
2023/06/14 07:22:18;;;;;;;0.60;0.30;;;19.40;1.00;;;;;;4973846;28;20908;-70
2023/06/14 07:24:46;;;;;;;0.60;0.20;;;19.50;1.00;;;;;;4974512;28;20499;-71
2023/06/14 07:27:14;;;;;;;0.60;0.20;;;19.60;1.00;;;;;;4974465;28;20900;-70
2023/06/14 07:29:44;;;;;;;0.80;0.27;;;19.70;1.00;;;;;;4974040;28;20825;-70
2023/06/14 07:32:12;;;;;;;0.60;0.20;;;19.70;1.00;;;;;;4973832;28;20959;-70
2023/06/14 07:34:39;;;;;;;0.80;0.40;;;19.70;1.00;;;;;;4974666;28;20525;-71
2023/06/14 07:37:07;;;;;;;0.60;0.10;;;19.60;1.00;;;;;;4973935;28;20552;-71
2023/06/14 07:39:35;;;;;;;0.80;0.20;;;19.60;1.00;;;;;;4973935;28;20998;-70
2023/06/14 07:42:03;;;;;;;0.60;0.20;;;19.50;1.00;;;;;;4973715;28;20485;-70
2023/06/14 07:44:32;;;;;;;0.60;0.20;;;;;;;;;;4973686;28;20469;-70
2023/06/14 07:47:01;;;;;;;0.60;0.20;;;19.70;1.00;;;;;;4974060;28;20497;-71
2023/06/14 07:49:29;;;;;;;0.60;0.20;;;19.60;1.00;;;;;;4965683;28;20548;-71
2023/06/14 07:51:58;;;;;;;0.60;0.30;;;19.70;1.00;;;;;;4970677;28;20484;-71
2023/06/14 07:54:27;;;;;;;0.70;0.30;;;19.80;1.00;;;;;;4975296;28;20990;-70
2023/06/14 07:56:56;;;;;;;0.70;0.70;;;;;;;;;;4974076;28;20442;-71
2023/06/14 07:59:23;;;;;;;0.60;0.23;;;19.90;1.00;;;;;;4973538;28;20888;-71
2023/06/14 08:01:52;;;;;;;5.13;1.10;;;;;;;;;;4973750;28;20544;-70
2023/06/14 08:04:21;;;;;;;0.60;0.20;;;20.00;1.00;;;;;;4970028;28;20855;-70
2023/06/14 08:06:49;;;;;;;0.60;0.20;;;20.10;1.00;;;;;;4970378;28;20482;-70
2023/06/14 08:09:17;;;;;;;0.60;0.20;;;20.10;1.00;;;;;;4962288;28;20760;-71
2023/06/14 08:11:45;;;;;;;0.70;0.50;;;20.10;1.00;;;;;;4966691;28;20462;-70
2023/06/14 08:14:13;;;;;;;0.60;0.20;;;20.10;1.00;;;;;;4964784;28;20523;-70
2023/06/14 08:16:41;;;;;;;0.87;0.30;;;20.10;1.00;;;;;;4967526;28;20533;-71
2023/06/14 08:19:09;;;;;;;0.60;0.30;;;20.10;1.00;;;;;;4974390;28;20497;-71
2023/06/14 08:21:38;;;;;;;0.60;0.20;;;20.20;1.00;;;;;;4980933;28;20525;-70
2023/06/14 08:24:07;;;;;;;0.60;0.20;;;19.50;1.00;;;;;;4980466;28;20618;-71
2023/06/14 08:26:36;;;;;;;0.60;0.20;;;20.20;1.00;;;;;;4973388;28;20485;-70
2023/06/14 08:29:05;;;;;;;2.00;1.90;;;20.30;1.00;;;;;;4980214;28;20484;-69
2023/06/14 08:31:33;;;;;;;0.60;0.10;;;20.50;1.00;;;;;;4976516;28;20475;-69
2023/06/14 08:34:01;;;;;;;0.60;0.20;;;;;;;;;;4975564;28;20565;-69
2023/06/14 08:36:32;;;;;;;0.60;0.20;;;20.60;1.00;;;;;;4973477;28;20448;-70
2023/06/14 08:39:02;;;;;;;1.03;0.83;;;20.70;1.00;;;;;;4965079;28;20509;-71
2023/06/14 08:41:30;;;;;;;0.60;0.20;;;20.60;1.00;;;;;;4979857;28;20513;-70
2023/06/14 08:43:58;;;;;;;0.70;0.10;;;20.80;1.00;;;;;;4982348;28;20468;-70
2023/06/14 08:46:28;;;;;;;0.60;0.20;;;20.80;1.00;;;;;;4963396;28;20529;-70
2023/06/14 08:48:57;;;;;;;0.60;0.20;;;20.90;1.00;;;;;;4975454;28;20978;-70
2023/06/14 08:51:33;;;;;;;0.60;0.10;;;20.90;1.00;;;;;;4983977;28;20514;-71
2023/06/14 08:54:03;;;;;;;11.30;10.50;;;21.10;1.00;;;;;;4991762;28;20963;-71
2023/06/14 08:56:33;;;;;;;0.60;0.20;;;21.00;1.00;;;;;;4986627;28;20533;-71
2023/06/14 08:59:02;;;;;;;0.70;0.20;;;21.10;1.00;;;;;;4972908;28;20667;-70
2023/06/14 09:01:34;;;;;;;0.90;0.40;;;21.20;1.00;;;;;;4971886;28;20488;-70
2023/06/14 09:04:05;;;;;;;0.63;0.27;;;21.00;1.00;;;;;;4972573;28;20445;-70
2023/06/14 09:06:33;;;;;;;0.77;0.40;;;20.80;1.00;;;;;;4972846;28;20486;-70
2023/06/14 09:09:02;;;;;;;0.60;0.20;;;20.80;1.00;;;;;;4972221;28;20448;-69
2023/06/14 09:11:31;;;;;;;0.60;0.20;;;20.90;1.00;;;;;;4978326;28;20520;-70
2023/06/14 09:13:59;;;;;;;0.60;0.10;;;20.90;1.00;;;;;;4988961;28;20830;-70
2023/06/14 09:16:27;;;;;;;0.60;0.13;;;20.90;1.00;;;;;;4966923;28;20601;-69
2023/06/14 09:18:55;;;;;;;0.60;0.10;;;20.80;1.00;;;;;;4960877;28;20808;-70
2023/06/14 09:21:26;;;;;;;0.60;0.20;;;20.80;1.00;;;;;;4971124;28;20474;-70
2023/06/14 09:23:55;;;;;;;0.70;0.40;;;20.90;1.00;;;;;;4965961;28;20451;-70
2023/06/14 09:26:23;;;;;;;1.30;1.20;;;20.90;1.00;;;;;;4957868;29;20455;-69
2023/06/14 09:28:52;;;;;;;0.60;0.10;;;20.80;1.00;;;;;;4957472;29;20542;-70
2023/06/14 09:31:21;;;;;;;1.17;0.50;;;20.80;1.00;;;;;;4957095;29;20524;-70
2023/06/14 09:33:50;;;;;;;0.63;0.20;;;20.90;1.00;;;;;;4967942;28;20481;-70
2023/06/14 09:36:20;;;;;;;0.60;0.20;;;21.00;1.00;;;;;;4977847;28;20465;-73
2023/06/14 09:38:55;;;;;;;0.60;0.20;;;21.10;1.00;;;;;;4991649;28;20476;-75
2023/06/14 09:41:32;;;;;;;0.60;0.10;;;21.20;1.00;;;;;;5008332;28;20513;-75
2023/06/14 09:44:03;;;;;;;0.60;0.10;;;21.30;1.00;;;;;;4986875;28;20453;-76
2023/06/14 09:46:37;;;;;;;0.60;0.10;;;21.30;1.00;;;;;;4982054;28;20932;-73
2023/06/14 09:49:06;;;;;;;0.60;0.20;;;21.30;1.00;;;;;;4978765;28;20459;-73
2023/06/14 09:51:37;;;;;;;0.60;0.20;;;21.40;1.00;;;;;;4977577;28;20462;-74
2023/06/14 09:54:06;;;;;;;0.70;0.40;;;21.40;1.00;;;;;;4989710;28;20452;-75
2023/06/14 09:56:37;;;;;;;2.60;0.50;;;21.50;1.00;;;;;;4973260;28;20502;-74
2023/06/14 09:59:07;;;;;;;0.60;0.20;;;21.60;1.00;;;;;;4971478;28;20495;-74
2023/06/14 10:01:42;;;;;;;0.60;0.20;;;21.80;1.00;;;;;;4977133;28;20460;-74
2023/06/14 10:04:11;;;;;;;0.60;0.13;;;21.90;1.00;;;;;;4977774;28;20442;-75
2023/06/14 10:06:44;;;;;;;1.90;0.53;;;22.00;1.00;;;;;;4985184;28;20438;-76
2023/06/14 10:09:12;;;;;;;0.70;0.10;;;;;;;;;;4978845;28;20470;-75
2023/06/14 10:11:43;;;;;;;0.70;0.20;;;22.00;1.00;;;;;;4982624;28;20499;-74
2023/06/14 10:14:14;;;;;;;0.60;0.10;;;;;;;;;;4970409;28;20940;-75
2023/06/14 10:16:50;;;;;;;1.23;0.77;;;22.20;1.00;;;;;;4976554;28;20920;-75
2023/06/14 10:19:21;;;;;;;1.23;0.37;;;22.20;1.00;;;;;;4966328;28;20934;-76
2023/06/14 10:21:56;;;;;;;1.13;0.27;;;22.00;1.00;;;;;;4984454;28;20903;-74
2023/06/14 10:24:31;;;;;;;0.70;0.20;;;22.10;1.00;;;;;;4973949;28;20455;-75
2023/06/14 10:27:00;;;;;;;0.63;0.10;;;22.30;1.00;;;;;;4976447;28;20470;-76
2023/06/14 10:29:32;;;;;;;0.60;0.10;;;22.40;1.00;;;;;;4975397;28;20950;-75
2023/06/14 10:32:03;;;;;;;0.70;0.20;;;22.50;1.00;;;;;;4972042;28;20529;-75
2023/06/14 10:34:32;;;;;;;0.70;0.20;;;22.50;1.00;;;;;;4984464;28;20468;-75
2023/06/14 10:37:06;;;;;;;0.70;0.10;;;22.40;1.00;;;;;;4968193;28;20460;-75
2023/06/14 10:39:39;;;;;;;0.70;0.30;;;22.40;1.00;;;;;;4956833;29;20468;-76
2023/06/14 10:42:07;;;;;;;0.60;0.20;;;22.40;1.00;;;;;;4967983;28;20457;-74
2023/06/14 10:44:47;;;;;;;2.03;0.60;;;;;;;;;;4969827;28;20448;-74
2023/06/14 10:47:28;;;;;;;0.70;0.10;;;22.60;1.00;;;;;;4980528;28;20475;-75
2023/06/14 10:50:01;;;;;;;0.70;0.10;;;22.70;1.00;;;;;;4956799;29;21243;-75
2023/06/14 10:52:31;;;;;;;0.70;0.20;;;22.70;1.00;;;;;;4956912;29;20530;-74
2023/06/14 10:55:11;;;;;;;0.70;0.20;;;22.70;1.00;;;;;;4971097;28;20474;-76
2023/06/14 10:57:45;;;;;;;0.70;0.27;;;22.80;1.00;;;;;;4978686;28;20467;-76
2023/06/14 11:00:24;;;;;;;0.70;0.20;;;22.70;1.00;;;;;;4966011;28;20500;-75
2023/06/14 11:03:29;;;;;;;0.70;0.20;;;22.60;1.00;;;;;;4975243;28;20546;-75
2023/06/14 11:05:58;;;;;;;0.70;0.20;;;22.60;1.00;;;;;;4978175;28;20484;-75
2023/06/14 11:09:07;;;;;;;0.70;0.27;;;22.60;1.00;;;;;;4986964;28;20482;-75
2023/06/14 11:11:38;;;;;;;0.70;0.10;;;20.40;1.00;;;;;;4981460;28;20475;-75
2023/06/14 11:14:07;;;;;;;1.43;1.03;;;22.60;1.00;;;;;;4975151;28;20451;-76
2023/06/14 11:16:37;;;;;;;0.63;0.10;;;22.60;1.00;;;;;;4974822;28;20519;-76
2023/06/14 11:19:05;;;;;;;0.90;0.63;;;22.60;1.00;;;;;;4983054;28;20470;-75
2023/06/14 11:21:34;;;;;;;0.60;0.10;;;22.60;1.00;;;;;;4991050;28;20491;-74
2023/06/14 11:24:02;;;;;;;0.70;0.10;;;;;;;;;;4995269;28;20609;-75
2023/06/14 11:26:34;;;;;;;0.60;0.10;;;22.60;1.00;;;;;;4994719;28;20937;-76
2023/06/14 11:29:02;;;;;;;0.70;0.13;;;22.60;1.00;;;;;;4989710;28;20475;-76
2023/06/14 11:31:31;;;;;;;0.70;0.20;;;22.80;1.00;;;;;;4982723;28;20485;-76
2023/06/14 11:34:01;;;;;;;0.70;0.10;;;23.10;1.00;;;;;;4994117;28;20450;-75
2023/06/14 11:36:30;;;;;;;0.93;0.40;;;23.40;1.00;;;;;;4982498;28;20447;-75
2023/06/14 11:39:00;;;;;;;1.10;0.73;;;23.40;1.00;;;;;;4975005;28;20435;-74
2023/06/14 11:41:41;;;;;;;0.70;0.20;;;23.40;1.00;;;;;;4975395;28;20475;-76
2023/06/14 11:44:13;;;;;;;0.70;0.20;;;23.40;1.00;;;;;;4967209;28;20452;-76
2023/06/14 11:46:41;;;;;;;0.70;0.20;;;23.50;1.00;;;;;;4975427;28;20444;-76
2023/06/14 11:49:11;;;;;;;0.70;0.17;;;23.50;1.00;;;;;;4975299;28;20492;-75
2023/06/14 11:51:39;;;;;;;0.70;0.30;;;23.50;1.00;;;;;;4975946;28;20567;-75
2023/06/14 11:54:08;;;;;;;0.87;0.30;;;23.40;1.00;;;;;;4975659;28;20454;-74
2023/06/14 11:56:38;;;;;;;0.70;0.20;;;23.40;1.00;;;;;;4989018;28;20454;-76
2023/06/14 11:59:06;;;;;;;0.70;0.20;;;23.50;1.00;;;;;;4998992;28;20506;-74
2023/06/14 12:01:39;;;;;;;0.70;0.20;;;23.40;1.00;;;;;;4998795;28;20497;-75
2023/06/14 12:04:08;;;;;;;0.70;0.20;;;;;;;;;;4997869;28;20468;-76
2023/06/14 12:06:43;;;;;;;1.03;0.93;;;;;;;;;;4999370;28;20442;-75
2023/06/14 12:09:13;;;;;;;1.47;1.23;;;23.30;1.00;;;;;;4983854;28;20523;-74
2023/06/14 12:11:42;;;;;;;0.70;0.20;;;;;;;;;;4997443;28;20462;-76
2023/06/14 12:14:10;;;;;;;0.70;0.20;;;23.20;1.00;;;;;;5001807;28;20441;-76
2023/06/14 12:16:40;;;;;;;0.70;0.30;;;23.10;1.00;;;;;;4984100;28;20484;-74
2023/06/14 12:19:11;;;;;;;0.70;0.20;;;23.20;1.00;;;;;;4978905;28;20443;-74
2023/06/14 12:21:41;;;;;;;0.70;0.20;;;23.30;1.00;;;;;;4974384;28;20539;-74
2023/06/14 12:24:11;;;;;;;1.23;0.40;;;23.40;1.00;;;;;;4974998;28;20448;-74
2023/06/14 12:26:41;;;;;;;0.70;0.20;;;23.40;1.00;;;;;;4975109;28;20928;-74
2023/06/14 12:29:09;;;;;;;0.70;0.20;;;23.50;1.00;;;;;;4974714;28;20482;-74
2023/06/14 12:31:38;;;;;;;0.70;0.20;;;;;;;;;;4976842;28;20473;-75
2023/06/14 12:34:06;;;;;;;0.70;0.20;;;23.80;1.00;;;;;;4979507;28;20969;-75
2023/06/14 12:36:39;;;;;;;0.70;0.10;;;;;;;;;;4975921;28;20555;-76
2023/06/14 12:39:09;;;;;;;0.70;0.13;;;24.10;1.00;;;;;;4977066;28;20530;-75
2023/06/14 12:41:37;;;;;;;0.70;0.10;;;24.20;1.00;;;;;;4985279;28;20475;-76
2023/06/14 12:44:05;;;;;;;0.70;0.10;;;24.30;1.00;;;;;;4988311;28;20461;-74
2023/06/14 12:46:33;;;;;;;0.70;0.20;;;24.40;1.00;;;;;;4975113;28;20551;-74
2023/06/14 12:49:01;;;;;;;0.70;0.10;;;24.50;1.00;;;;;;4983060;28;21010;-75
2023/06/14 12:51:29;;;;;;;0.70;0.10;;;24.50;1.00;;;;;;4987325;28;20466;-73
2023/06/14 12:53:57;;;;;;;4.83;0.77;;;24.60;1.00;;;;;;4979934;28;20465;-75
2023/06/14 12:56:27;;;;;;;1.03;0.50;;;24.70;1.00;;;;;;4975664;28;20525;-74
2023/06/14 12:58:55;;;;;;;0.70;0.10;;;24.60;1.00;;;;;;4973880;28;20543;-75
2023/06/14 13:01:23;;;;;;;0.70;0.10;;;;;;;;;;4974656;28;20474;-75
2023/06/14 13:03:53;;;;;;;1.40;0.70;;;24.40;1.00;;;;;;4970049;28;20452;-74
2023/06/14 13:06:22;;;;;;;0.70;0.30;;;24.30;1.00;;;;;;4954585;28;20864;-75
2023/06/14 13:08:50;;;;;;;0.70;0.20;;;24.10;1.00;;;;;;4953012;29;20473;-73
2023/06/14 13:11:18;;;;;;;0.70;0.40;;;23.80;1.00;;;;;;4976332;28;20471;-72
2023/06/14 13:13:48;;;;;;;1.20;0.53;;;23.80;1.00;;;;;;4974342;28;20630;-73
2023/06/14 13:16:16;;;;;;;0.70;0.17;;;23.70;1.00;;;;;;4967534;28;20463;-75
2023/06/14 13:18:44;;;;;;;0.80;0.47;;;23.90;1.00;;;;;;4955350;29;20445;-73
2023/06/14 13:21:12;;;;;;;0.70;0.50;;;23.90;1.00;;;;;;4954538;29;20465;-73
2023/06/14 13:23:39;;;;;;;0.70;0.10;;;24.00;1.00;;;;;;4954452;29;20935;-72
2023/06/14 13:26:08;;;;;;;0.70;0.10;;;24.20;1.00;;;;;;4957249;28;20450;-74
2023/06/14 13:28:36;;;;;;;0.70;0.20;;;24.30;1.00;;;;;;4974238;28;20495;-74
2023/06/14 13:31:05;;;;;;;0.70;0.20;;;24.30;1.00;;;;;;4973784;28;21013;-71
2023/06/14 13:33:33;;;;;;;1.87;1.03;;;24.30;1.00;;;;;;4963506;28;20955;-72
2023/06/14 13:36:01;;;;;;;0.70;0.20;;;24.30;1.00;;;;;;4964913;28;20944;-73
2023/06/14 13:38:30;;;;;;;0.70;0.10;;;;;;;;;;4964583;28;20944;-73
2023/06/14 13:40:58;;;;;;;0.80;0.30;;;24.40;1.00;;;;;;4965059;28;21048;-73
2023/06/14 13:43:26;;;;;;;1.43;0.47;;;24.30;1.00;;;;;;4963616;28;20445;-72
2023/06/14 13:45:55;;;;;;;0.70;0.30;;;24.30;1.00;;;;;;4954338;29;20537;-73
2023/06/14 13:48:24;;;;;;;0.70;0.20;;;24.30;1.00;;;;;;4954139;29;20446;-73
2023/06/14 13:50:52;;;;;;;0.80;0.27;;;;;;;;;;4958487;28;20520;-72
2023/06/14 13:53:20;;;;;;;0.70;0.10;;;;;;;;;;4972768;28;20444;-72
2023/06/14 13:55:48;;;;;;;0.70;0.37;;;23.90;1.00;;;;;;4974033;28;20459;-74
2023/06/14 13:58:17;;;;;;;0.70;0.10;;;;;;;;;;4974170;28;20449;-74
2023/06/14 14:00:45;;;;;;;0.70;0.10;;;23.80;1.00;;;;;;4968823;28;20493;-73
2023/06/14 14:03:13;;;;;;;0.70;0.13;;;23.80;1.00;;;;;;4988342;28;20526;-74
2023/06/14 14:05:42;;;;;;;0.70;0.20;;;23.70;1.00;;;;;;4985502;28;20441;-74
2023/06/14 14:08:10;;;;;;;0.70;0.20;;;23.80;1.00;;;;;;4972469;28;20455;-73
2023/06/14 14:10:38;;;;;;;0.70;0.20;;;24.00;1.00;;;;;;4977258;28;20477;-75
2023/06/14 14:13:06;;;;;;;0.70;0.20;;;24.10;1.00;;;;;;4978787;28;20475;-75
2023/06/14 14:15:34;;;;;;;0.70;0.23;;;24.20;1.00;;;;;;4982565;28;20456;-73
2023/06/14 14:18:03;;;;;;;0.80;0.27;;;24.50;1.00;;;;;;4979376;28;20545;-74
2023/06/14 14:20:31;;;;;;;0.70;0.20;;;24.70;1.00;;;;;;4973018;28;20538;-73
2023/06/14 14:23:01;;;;;;;0.80;0.30;;;24.70;1.00;;;;;;4979203;28;20440;-73
2023/06/14 14:25:30;;;;;;;0.70;0.50;;;;;;;;;;4978631;28;20548;-73
2023/06/14 14:27:58;;;;;;;1.17;0.47;;;24.50;1.00;;;;;;4978153;28;20454;-74
2023/06/14 14:30:26;;;;;;;1.00;0.50;;;;;;;;;;4977182;28;20545;-74
2023/06/14 14:32:54;;;;;;;1.23;0.60;;;24.10;1.00;;;;;;4974432;28;20549;-73
2023/06/14 14:35:24;;;;;;;0.70;0.20;;;24.20;1.00;;;;;;4972132;28;20512;-74
2023/06/14 14:37:53;;;;;;;0.70;0.20;;;24.10;1.00;;;;;;4978306;28;20457;-74
2023/06/14 14:40:23;;;;;;;0.70;0.17;;;24.20;1.00;;;;;;4977045;28;20488;-74
2023/06/14 14:42:50;;;;;;;0.70;0.10;;;24.00;1.00;;;;;;4976943;28;20495;-73
2023/06/14 14:45:18;;;;;;;0.70;0.20;;;24.00;1.00;;;;;;4969605;28;20543;-73
2023/06/14 14:47:46;;;;;;;0.80;0.50;;;24.00;1.00;;;;;;4957443;28;21282;-72
2023/06/14 14:50:16;;;;;;;0.70;0.10;;;;;;;;;;4957611;29;20496;-73
2023/06/14 14:52:45;;;;;;;0.70;0.20;;;24.70;1.00;;;;;;4956655;29;20445;-73
2023/06/14 14:55:13;;;;;;;0.70;0.10;;;24.60;1.00;;;;;;4962346;28;21051;-74
2023/06/14 14:57:42;;;;;;;0.70;0.10;;;24.80;1.00;;;;;;4964674;28;20442;-73
2023/06/14 15:00:11;;;;;;;0.70;0.20;;;25.40;1.00;;;;;;4969113;28;21205;-74
2023/06/14 15:02:39;;;;;;;0.70;0.20;;;25.40;1.00;;;;;;4970042;28;20444;-73
2023/06/14 15:05:07;;;;;;;0.70;0.20;;;25.60;1.00;;;;;;4962221;28;20442;-73
2023/06/14 15:07:36;;;;;;;0.70;0.20;;;;;;;;;;4957407;29;20850;-73
2023/06/14 15:10:04;;;;;;;0.70;0.20;;;25.70;1.00;;;;;;4959136;28;20501;-72
2023/06/14 15:12:32;;;;;;;0.70;0.20;;;25.70;1.00;;;;;;4990200;28;20980;-73
2023/06/14 15:15:01;;;;;;;0.70;0.10;;;25.90;1.00;;;;;;4975750;28;20537;-72
2023/06/14 15:17:29;;;;;;;0.80;0.40;;;25.90;1.00;;;;;;4974522;28;20452;-73
2023/06/14 15:19:57;;;;;;;0.70;0.10;;;25.90;1.00;;;;;;4975752;28;20524;-73
2023/06/14 15:22:25;;;;;;;0.70;0.17;;;25.80;1.00;;;;;;4975563;28;20480;-73
2023/06/14 15:24:53;;;;;;;0.70;0.10;;;25.70;1.00;;;;;;4975793;28;20481;-73
2023/06/14 15:27:21;;;;;;;0.90;0.40;;;;;;;;;;4976169;28;20449;-74
2023/06/14 15:29:50;;;;;;;0.70;0.37;;;25.50;1.00;;;;;;4975583;28;20477;-74
2023/06/14 15:32:20;;;;;;;0.80;0.30;;;25.70;1.00;;;;;;4975245;28;20441;-74
2023/06/14 15:34:48;;;;;;;0.70;0.20;;;25.90;1.00;;;;;;4975766;28;20456;-74
2023/06/14 15:37:16;;;;;;;1.27;0.47;;;25.90;1.00;;;;;;4974592;28;20533;-73
2023/06/14 15:39:44;;;;;;;0.80;0.20;;;26.00;1.00;;;;;;4975538;28;20460;-73
2023/06/14 15:42:12;;;;;;;0.90;0.50;;;26.00;1.00;;;;;;4974269;28;20450;-73
2023/06/14 15:44:41;;;;;;;0.70;0.30;;;26.10;1.00;;;;;;4974616;28;20819;-73
2023/06/14 15:47:09;;;;;;;0.80;0.30;;;25.80;1.00;;;;;;4966719;28;20522;-73
2023/06/14 15:49:38;;;;;;;1.27;0.93;;;25.60;1.00;;;;;;4964194;28;20529;-74
2023/06/14 15:52:07;;;;;;;0.70;0.20;;;25.60;1.00;;;;;;4965992;28;20478;-72
2023/06/14 15:54:35;;;;;;;0.70;0.20;;;25.60;1.00;;;;;;4964929;28;20497;-73
2023/06/14 15:57:03;;;;;;;1.47;0.60;;;25.60;1.00;;;;;;4975484;28;20560;-72
2023/06/14 15:59:31;;;;;;;1.57;0.23;;;25.80;1.00;;;;;;4978083;28;20447;-72
2023/06/14 16:01:59;;;;;;;0.70;0.17;;;25.80;1.00;;;;;;4977442;28;20438;-74
2023/06/14 16:04:27;;;;;;;0.70;0.10;;;25.70;1.00;;;;;;4968299;28;20446;-72
2023/06/14 16:06:56;;;;;;;0.70;0.20;;;25.80;1.00;;;;;;4969686;28;20881;-72
2023/06/14 16:09:24;;;;;;;0.70;0.10;;;26.00;1.00;;;;;;4972249;28;20523;-74
2023/06/14 16:11:52;;;;;;;0.70;0.20;;;26.40;1.00;;;;;;4976364;28;20504;-75
2023/06/14 16:14:20;;;;;;;0.70;0.10;;;26.70;1.00;;;;;;4976540;28;20525;-73
2023/06/14 16:16:47;;;;;;;0.70;0.20;;;27.00;1.00;;;;;;4974872;28;20506;-72
2023/06/14 16:19:19;;;;;;;0.70;0.20;;;;;;;;;;4974593;28;20457;-73
2023/06/14 16:21:47;;;;;;;0.70;0.20;;;;;;;;;;4974819;28;20574;-73
2023/06/14 16:24:17;;;;;;;0.80;0.20;;;27.20;1.00;;;;;;4974241;28;21037;-74
2023/06/14 16:26:44;;;;;;;1.07;0.80;;;26.90;1.00;;;;;;4974368;28;20861;-73
2023/06/14 16:29:13;;;;;;;0.80;0.40;;;26.70;1.00;;;;;;4974228;28;20489;-73
2023/06/14 16:31:41;;;;;;;0.80;0.30;;;;;;;;;;4973825;28;20517;-74
2023/06/14 16:34:11;;;;;;;0.70;0.20;;;26.60;1.00;;;;;;4974719;28;20508;-74
2023/06/14 16:36:39;;;;;;;0.70;0.20;;;26.70;1.00;;;;;;4974520;28;20964;-73
2023/06/14 16:39:07;;;;;;;0.70;0.10;;;27.00;1.00;;;;;;4974766;28;20544;-73
2023/06/14 16:41:36;;;;;;;0.70;0.20;;;27.10;1.00;;;;;;4973648;28;20481;-74